Time;durP1;ratioP1;P1;durP2;ratioP2;P2;SDS_P1;SDS_P2;PMS_P1;PMS_P2;Temp;Humidity;BMP_temperature;BMP_pressure;BME280_temperature;BME280_humidity;BME280_pressure;Samples;Min_cycle;Max_cycle;Signal;HPM_P1;HPM_P2
2024/02/09 00:01:55;;;;;;;8.93;7.97;;;;;;;;;;5030646;28;20233;-80
2024/02/09 00:04:22;;;;;;;10.63;8.27;;;;;;;;;;5046059;28;20217;-80
2024/02/09 00:06:50;;;;;;;9.33;8.07;;;;;;;;;;5048365;28;20186;-80
2024/02/09 00:09:17;;;;;;;9.60;8.20;;;;;;;;;;5032582;28;20224;-80
2024/02/09 00:11:45;;;;;;;9.57;7.80;;;;;;;;;;5050442;28;20213;-81
2024/02/09 00:14:13;;;;;;;8.37;7.47;;;;;;;;;;5050722;28;20204;-79
2024/02/09 00:16:43;;;;;;;8.90;7.77;;;;;;;;;;5049944;28;20186;-81
2024/02/09 00:19:11;;;;;;;9.03;7.67;;;;;;;;;;5050368;28;20654;-82
2024/02/09 00:21:39;;;;;;;9.03;7.73;;;;;;;;;;5036617;28;20660;-80
2024/02/09 00:24:06;;;;;;;8.07;7.27;;;;;;;;;;5052950;28;20201;-80
2024/02/09 00:26:34;;;;;;;9.10;8.20;;;;;;;;;;5051525;28;20218;-80
2024/02/09 00:29:01;;;;;;;9.10;7.57;;;;;;;;;;5046190;28;20197;-80
2024/02/09 00:31:27;;;;;;;9.67;8.00;;;;;;;;;;5048611;28;20205;-80
2024/02/09 00:33:55;;;;;;;9.13;7.93;;;;;;;;;;5050303;28;20194;-83
2024/02/09 00:36:23;;;;;;;9.40;8.23;;;;;;;;;;5050506;28;20589;-81
2024/02/09 00:38:50;;;;;;;8.40;7.27;;;;;;;;;;5029509;28;20317;-81
2024/02/09 00:41:22;;;;;;;8.73;7.83;;;;;;;;;;5043165;28;20191;-81
2024/02/09 00:43:49;;;;;;;9.70;7.80;;;;;;;;;;5051084;28;20187;-81
2024/02/09 00:46:15;;;;;;;9.17;7.90;;;;;;;;;;5049383;28;20213;-79
2024/02/09 00:48:42;;;;;;;9.40;7.67;;;;;;;;;;5044296;28;20222;-80
2024/02/09 00:51:09;;;;;;;8.03;7.10;;;;;;;;;;5050988;28;20190;-80
2024/02/09 00:53:39;;;;;;;9.17;7.23;;;;;;;;;;5023068;28;20232;-78
2024/02/09 00:56:10;;;;;;;8.97;7.80;;;;;;;;;;5050388;28;20224;-80
2024/02/09 00:58:37;;;;;;;8.50;7.67;;;;;;;;;;5051761;28;20228;-80
2024/02/09 01:01:04;;;;;;;8.97;7.90;;;;;;;;;;5043807;28;20200;-82
2024/02/09 01:03:34;;;;;;;9.37;8.33;;;;;;;;;;5050678;28;20262;-82
2024/02/09 01:06:06;;;;;;;9.27;8.00;;;;;;;;;;5051238;28;20204;-79
2024/02/09 01:08:35;;;;;;;11.80;9.30;;;;;;;;;;5051299;28;20251;-80
2024/02/09 01:11:11;;;;;;;9.13;8.07;;;;;;;;;;5051073;28;20193;-79
2024/02/09 02:45:52;;;;;;;6.93;6.23;;;;;;;;;;5034845;28;20722;-81
2024/02/09 03:05:19;;;;;;;8.70;6.63;;;;;;;;;;5027359;28;20292;-79
2024/02/09 03:07:49;;;;;;;7.80;6.93;;;;;;;;;;5053272;28;20198;-80
2024/02/09 03:10:36;;;;;;;8.50;6.90;;;;;;;;;;5055203;28;20189;-81
2024/02/09 03:13:08;;;;;;;8.00;6.83;;;;;;;;;;5053436;28;20213;-81
2024/02/09 03:15:37;;;;;;;7.90;7.10;;;;;;;;;;5035057;28;20194;-82
2024/02/09 03:18:04;;;;;;;8.00;7.10;;;;;;;;;;5060990;28;20258;-80
2024/02/09 03:20:34;;;;;;;8.13;7.33;;;;;;;;;;5019260;28;20284;-80
2024/02/09 03:23:04;;;;;;;8.37;7.50;;;;;;;;;;5052602;28;20197;-82
2024/02/09 03:25:32;;;;;;;10.23;8.37;;;;;;;;;;5053017;28;20193;-80
2024/02/09 03:27:58;;;;;;;10.73;8.27;;;;;;;;;;5034463;28;20193;-80
2024/02/09 03:30:26;;;;;;;10.47;9.30;;;;;;;;;;5034634;28;20221;-82
2024/02/09 03:32:55;;;;;;;11.43;9.27;;;;;;;;;;5049232;28;20760;-80
2024/02/09 03:35:31;;;;;;;10.47;9.47;;;;;;;;;;5052501;28;20252;-82
2024/02/09 03:38:02;;;;;;;10.70;9.43;;;;;;;;;;5052396;28;20208;-83
2024/02/09 03:40:32;;;;;;;11.30;8.90;;;;;;;;;;5034671;28;20201;-81
2024/02/09 03:43:01;;;;;;;11.77;9.67;;;;;;;;;;5069106;28;20197;-81
2024/02/09 03:45:28;;;;;;;10.43;9.10;;;;;;;;;;5056262;28;20691;-80
2024/02/09 03:47:56;;;;;;;11.83;9.23;;;;;;;;;;5052888;28;20228;-82
2024/02/09 03:50:23;;;;;;;11.57;9.57;;;;;;;;;;5066255;28;20196;-81
2024/02/09 03:52:51;;;;;;;11.20;10.10;;;;;;;;;;5052531;28;20213;-82
2024/02/09 03:55:18;;;;;;;13.77;11.13;;;;;;;;;;5052512;28;20204;-82
2024/02/09 03:57:47;;;;;;;14.33;11.80;;;;;;;;;;5043679;28;20255;-82
2024/02/09 04:00:18;;;;;;;14.23;12.20;;;;;;;;;;5063211;28;20209;-80
2024/02/09 04:02:52;;;;;;;15.60;12.87;;;;;;;;;;5062371;28;20312;-79
2024/02/09 04:05:21;;;;;;;15.97;14.27;;;;;;;;;;5058178;28;20228;-80
2024/02/09 04:08:04;;;;;;;15.70;14.00;;;;;;;;;;5036404;28;20644;-84
2024/02/09 04:10:38;;;;;;;17.07;13.97;;;;;;;;;;5045534;28;20561;-82
2024/02/09 04:13:13;;;;;;;15.13;13.37;;;;;;;;;;5034346;28;20213;-81
2024/02/09 04:15:43;;;;;;;16.17;13.83;;;;;;;;;;5034381;28;20704;-79
2024/02/09 04:18:11;;;;;;;16.50;13.30;;;;;;;;;;5033329;28;20209;-81
2024/02/09 04:20:46;;;;;;;16.67;13.83;;;;;;;;;;5051774;28;20267;-81
2024/02/09 04:23:18;;;;;;;19.50;14.83;;;;;;;;;;5034072;28;20253;-82
2024/02/09 04:25:45;;;;;;;18.63;14.83;;;;;;;;;;5033600;28;20205;-80
2024/02/09 04:28:12;;;;;;;17.07;13.67;;;;;;;;;;5051499;28;20209;-80
2024/02/09 04:30:42;;;;;;;15.93;13.77;;;;;;;;;;5034527;28;20224;-80
2024/02/09 04:33:10;;;;;;;17.17;14.17;;;;;;;;;;5047552;28;20694;-82
2024/02/09 04:35:38;;;;;;;18.47;14.03;;;;;;;;;;5050701;28;20208;-80
2024/02/09 04:38:07;;;;;;;15.80;14.10;;;;;;;;;;5051246;28;20196;-80
2024/02/09 04:40:35;;;;;;;17.60;13.90;;;;;;;;;;5051368;28;20197;-81
2024/02/09 04:43:04;;;;;;;18.27;13.97;;;;;;;;;;5050031;28;20255;-79
2024/02/09 04:45:33;;;;;;;18.57;14.67;;;;;;;;;;5051607;28;20276;-79
2024/02/09 04:48:00;;;;;;;16.50;14.70;;;;;;;;;;5036847;28;20232;-82
2024/02/09 04:50:27;;;;;;;16.10;14.23;;;;;;;;;;5061762;28;20193;-81
2024/02/09 04:52:55;;;;;;;18.23;14.07;;;;;;;;;;5029997;28;20260;-82
2024/02/09 04:55:24;;;;;;;16.93;14.03;;;;;;;;;;5050906;28;20200;-80
2024/02/09 04:57:53;;;;;;;16.30;14.30;;;;;;;;;;5051071;28;20229;-83
2024/02/09 05:00:24;;;;;;;19.27;14.33;;;;;;;;;;5025312;28;20217;-80
2024/02/09 05:02:53;;;;;;;16.60;14.17;;;;;;;;;;5039389;28;20220;-80
2024/02/09 05:05:22;;;;;;;17.60;14.13;;;;;;;;;;5051732;28;20186;-79
2024/02/09 05:07:53;;;;;;;16.17;13.90;;;;;;;;;;5034203;28;20194;-81
2024/02/09 05:10:21;;;;;;;16.87;13.97;;;;;;;;;;5028180;28;20247;-81
2024/02/09 05:12:47;;;;;;;14.57;12.70;;;;;;;;;;5051889;28;20213;-80
2024/02/09 05:15:17;;;;;;;17.80;12.77;;;;;;;;;;5027846;28;20224;-79
2024/02/09 05:17:44;;;;;;;16.80;12.70;;;;;;;;;;5034007;28;20197;-82
2024/02/09 05:20:13;;;;;;;16.00;12.63;;;;;;;;;;5017348;28;20269;-82
2024/02/09 05:22:46;;;;;;;16.73;13.00;;;;;;;;;;5033760;28;20201;-78
2024/02/09 05:25:13;;;;;;;15.90;12.77;;;;;;;;;;5033659;28;20193;-79
2024/02/09 05:27:43;;;;;;;14.63;12.13;;;;;;;;;;5024890;28;20205;-81
2024/02/09 05:30:11;;;;;;;15.67;12.30;;;;;;;;;;5043431;28;20206;-80
2024/02/09 05:32:44;;;;;;;14.70;12.43;;;;;;;;;;5051112;28;20285;-80
2024/02/09 05:35:22;;;;;;;15.73;12.03;;;;;;;;;;5034994;28;20724;-80
2024/02/09 05:37:48;;;;;;;16.57;12.50;;;;;;;;;;5035488;28;20202;-79
2024/02/09 05:40:19;;;;;;;15.37;12.60;;;;;;;;;;5055924;28;20207;-81
2024/02/09 05:42:50;;;;;;;15.67;12.73;;;;;;;;;;5025230;28;20198;-81
2024/02/09 05:45:19;;;;;;;15.77;13.07;;;;;;;;;;5047275;28;20255;-80
2024/02/09 05:47:46;;;;;;;16.83;12.87;;;;;;;;;;5055625;28;20203;-79
2024/02/09 05:50:13;;;;;;;16.63;12.77;;;;;;;;;;5059159;28;20267;-80
2024/02/09 05:52:49;;;;;;;15.50;12.70;;;;;;;;;;5037746;28;20301;-82
2024/02/09 05:55:17;;;;;;;14.37;12.57;;;;;;;;;;5051314;28;20193;-82
2024/02/09 05:57:45;;;;;;;14.53;12.30;;;;;;;;;;5020799;28;20242;-81
2024/02/09 06:00:14;;;;;;;15.53;12.37;;;;;;;;;;5037615;28;20196;-82
2024/02/09 06:02:42;;;;;;;15.80;12.53;;;;;;;;;;5046550;28;20260;-80
2024/02/09 06:05:16;;;;;;;14.80;12.93;;;;;;;;;;5065526;28;20259;-82
2024/02/09 06:07:47;;;;;;;16.13;12.90;;;;;;;;;;5057734;28;20212;-83
2024/02/09 06:10:14;;;;;;;15.97;12.97;;;;;;;;;;5061373;28;20205;-80
2024/02/09 06:12:44;;;;;;;14.53;12.30;;;;;;;;;;5045209;28;20213;-82
2024/02/09 06:15:12;;;;;;;15.10;12.73;;;;;;;;;;5058393;28;20196;-82
2024/02/09 06:17:40;;;;;;;15.23;12.13;;;;;;;;;;5055871;28;20193;-81
2024/02/09 06:20:08;;;;;;;15.97;11.83;;;;;;;;;;5056996;28;20214;-80
2024/02/09 06:22:36;;;;;;;13.57;11.73;;;;;;;;;;5037991;28;20223;-83
2024/02/09 06:25:06;;;;;;;12.60;11.00;;;;;;;;;;5057616;28;20252;-81
2024/02/09 06:27:33;;;;;;;14.67;10.90;;;;;;;;;;5036502;28;20202;-84
2024/02/09 06:30:02;;;;;;;13.63;10.43;;;;;;;;;;5036633;28;20638;-80
2024/02/09 06:32:33;;;;;;;13.17;10.27;;;;;;;;;;5036373;28;20658;-82
2024/02/09 06:35:03;;;;;;;13.27;9.80;;;;;;;;;;5039206;28;20756;-81
2024/02/09 06:37:31;;;;;;;11.33;9.33;;;;;;;;;;5054489;28;20209;-80
2024/02/09 06:40:03;;;;;;;10.27;9.13;;;;;;;;;;5060630;28;20193;-80
2024/02/09 06:42:30;;;;;;;12.37;9.97;;;;;;;;;;5054456;28;20247;-79
2024/02/09 06:44:59;;;;;;;11.37;9.30;;;;;;;;;;5060286;28;20259;-82
2024/02/09 06:47:28;;;;;;;12.20;9.23;;;;;;;;;;5061713;28;20198;-80
2024/02/09 06:49:55;;;;;;;9.50;8.53;;;;;;;;;;5065603;28;20192;-81
2024/02/09 06:52:31;;;;;;;9.93;8.43;;;;;;;;;;5035327;28;20305;-80
2024/02/09 06:55:02;;;;;;;12.63;9.17;;;;;;;;;;5052802;28;20209;-81
2024/02/09 06:57:31;;;;;;;9.33;7.93;;;;;;;;;;5053707;28;20178;-79
2024/02/09 06:59:58;;;;;;;11.20;9.33;;;;;;;;;;5053818;28;20198;-81
2024/02/09 07:02:37;;;;;;;10.57;8.73;;;;;;;;;;5026045;28;20206;-80
2024/02/09 07:05:15;;;;;;;10.97;8.90;;;;;;;;;;5062837;28;20206;-80
2024/02/09 07:07:47;;;;;;;11.03;8.60;;;;;;;;;;5029311;28;20202;-79
2024/02/09 07:10:17;;;;;;;11.93;9.10;;;;;;;;;;5034374;28;20206;-80
2024/02/09 07:12:44;;;;;;;11.03;9.17;;;;;;;;;;5053190;28;20217;-80
2024/02/09 07:15:14;;;;;;;11.43;9.23;;;;;;;;;;5044447;28;20266;-81
2024/02/09 07:17:41;;;;;;;12.33;9.57;;;;;;;;;;5053262;28;20617;-83
2024/02/09 07:20:11;;;;;;;11.27;9.33;;;;;;;;;;5057083;28;20670;-81
2024/02/09 07:22:38;;;;;;;12.03;9.17;;;;;;;;;;5052420;28;20224;-82
2024/02/09 07:25:07;;;;;;;12.43;9.67;;;;;;;;;;5036392;28;20202;-80
2024/02/09 07:27:34;;;;;;;12.07;9.67;;;;;;;;;;5035675;28;20211;-81
2024/02/09 07:30:01;;;;;;;11.57;10.30;;;;;;;;;;5052292;28;20200;-81
2024/02/09 07:32:32;;;;;;;12.30;10.60;;;;;;;;;;5048710;28;20212;-78
2024/02/09 07:35:05;;;;;;;13.60;11.40;;;;;;;;;;5034927;28;20226;-80
2024/02/09 07:37:38;;;;;;;13.27;11.17;;;;;;;;;;5053385;28;20204;-82
2024/02/09 07:40:08;;;;;;;13.63;11.80;;;;;;;;;;5034513;28;20198;-79
2024/02/09 07:42:37;;;;;;;15.57;13.40;;;;;;;;;;5036613;28;20220;-80
2024/02/09 07:45:04;;;;;;;15.60;13.07;;;;;;;;;;5034231;28;20730;-79
2024/02/09 07:47:31;;;;;;;16.27;13.03;;;;;;;;;;5042143;28;20192;-81
2024/02/09 07:50:04;;;;;;;14.83;12.93;;;;;;;;;;5052830;28;20189;-80
2024/02/09 07:52:38;;;;;;;15.73;12.53;;;;;;;;;;5053064;28;20204;-81
2024/02/09 07:55:07;;;;;;;14.43;12.03;;;;;;;;;;5059289;28;20220;-80
2024/02/09 07:57:35;;;;;;;16.13;13.70;;;;;;;;;;5060612;28;20200;-81
2024/02/09 08:00:08;;;;;;;16.87;13.00;;;;;;;;;;5052748;28;20205;-81
2024/02/09 08:02:40;;;;;;;17.10;13.27;;;;;;;;;;5049651;28;20263;-81
2024/02/09 08:05:17;;;;;;;18.60;13.90;;;;;;;;;;5044780;28;20226;-81
2024/02/09 08:07:49;;;;;;;16.73;13.90;;;;;;;;;;5049205;28;20196;-80
2024/02/09 08:10:17;;;;;;;16.67;13.80;;;;;;;;;;5057247;28;20201;-80
2024/02/09 08:12:48;;;;;;;16.13;13.50;;;;;;;;;;5052517;28;20188;-80
2024/02/09 08:15:15;;;;;;;17.30;13.30;;;;;;;;;;5055645;28;20220;-79
2024/02/09 08:17:48;;;;;;;16.50;14.03;;;;;;;;;;5038108;28;20197;-81
2024/02/09 08:20:19;;;;;;;16.20;13.47;;;;;;;;;;5055781;28;20193;-83
2024/02/09 08:22:48;;;;;;;16.63;13.67;;;;;;;;;;5058514;28;20193;-78
2024/02/09 08:25:19;;;;;;;17.87;14.47;;;;;;;;;;5039200;28;20209;-82
2024/02/09 08:27:51;;;;;;;15.77;14.07;;;;;;;;;;5044335;28;20199;-81
2024/02/09 08:30:22;;;;;;;19.50;14.50;;;;;;;;;;5042685;28;20193;-81
2024/02/09 08:32:49;;;;;;;16.00;13.87;;;;;;;;;;5061572;28;20223;-80
2024/02/09 08:35:37;;;;;;;18.47;14.93;;;;;;;;;;5066701;28;20695;-84
2024/02/09 08:38:09;;;;;;;16.43;14.23;;;;;;;;;;5061104;28;20217;-80
2024/02/09 08:40:35;;;;;;;17.47;15.00;;;;;;;;;;5058620;28;20197;-79
2024/02/09 08:43:05;;;;;;;16.77;14.90;;;;;;;;;;5025168;28;20223;-78
2024/02/09 08:45:31;;;;;;;18.67;15.77;;;;;;;;;;5043394;28;20200;-79
2024/02/09 08:47:59;;;;;;;17.60;13.50;;;;;;;;;;5044258;28;20190;-81
2024/02/09 08:50:27;;;;;;;19.97;17.03;;;;;;;;;;5050494;28;20189;-80
2024/02/09 08:52:56;;;;;;;17.73;14.37;;;;;;;;;;5034683;28;20212;-80
2024/02/09 08:55:22;;;;;;;14.43;12.80;;;;;;;;;;5049449;28;20708;-80
2024/02/09 08:57:50;;;;;;;13.83;12.10;;;;;;;;;;5048894;28;20316;-80
2024/02/09 09:00:18;;;;;;;23.73;17.83;;;;;;;;;;5050681;28;20682;-81
2024/02/09 09:02:45;;;;;;;23.77;16.50;;;;;;;;;;5055077;28;20228;-78
2024/02/09 09:05:11;;;;;;;20.70;15.13;;;;;;;;;;5057428;28;20196;-78
2024/02/09 09:07:38;;;;;;;17.93;13.30;;;;;;;;;;5032616;28;20231;-80
2024/02/09 09:10:09;;;;;;;14.80;11.60;;;;;;;;;;5053695;28;20201;-80
2024/02/09 09:12:37;;;;;;;14.67;11.70;;;;;;;;;;5049389;28;20255;-82
2024/02/09 09:15:05;;;;;;;14.17;11.27;;;;;;;;;;5034494;28;20229;-80
2024/02/09 09:17:32;;;;;;;13.87;12.30;;;;;;;;;;5057646;28;20192;-80
2024/02/09 09:20:03;;;;;;;13.37;11.00;;;;;;;;;;5050760;28;20285;-79
2024/02/09 09:22:34;;;;;;;13.90;10.87;;;;;;;;;;5040694;28;20243;-81
2024/02/09 09:25:04;;;;;;;20.73;17.80;;;;;;;;;;5034485;28;20201;-79
2024/02/09 09:27:34;;;;;;;14.37;12.30;;;;;;;;;;5036479;28;20255;-79
2024/02/09 09:30:02;;;;;;;14.27;11.17;;;;;;;;;;5026189;28;20207;-78
2024/02/09 09:32:34;;;;;;;12.73;10.90;;;;;;;;;;5029639;28;20229;-79
2024/02/09 09:35:02;;;;;;;12.90;10.30;;;;;;;;;;5055993;28;20212;-83
2024/02/09 09:37:29;;;;;;;12.63;10.90;;;;;;;;;;5050990;28;20198;-82
2024/02/09 09:39:56;;;;;;;12.70;10.97;;;;;;;;;;5032972;28;20193;-77
2024/02/09 09:42:23;;;;;;;15.30;11.47;;;;;;;;;;5049442;28;20185;-81
2024/02/09 09:44:54;;;;;;;13.40;11.40;;;;;;;;;;5052298;28;20197;-83
2024/02/09 09:47:25;;;;;;;12.87;11.33;;;;;;;;;;5050899;28;20225;-84
2024/02/09 09:49:54;;;;;;;13.63;11.83;;;;;;;;;;5036595;28;20228;-81
2024/02/09 09:52:23;;;;;;;14.40;12.87;;;;;;;;;;5047777;28;20280;-81
2024/02/09 09:54:50;;;;;;;14.50;12.60;;;;;;;;;;5050411;28;20236;-81
2024/02/09 09:57:19;;;;;;;14.10;12.23;;;;;;;;;;5048044;28;20215;-78
2024/02/09 09:59:46;;;;;;;14.80;12.80;;;;;;;;;;5051313;28;20229;-80
2024/02/09 10:02:17;;;;;;;15.43;13.83;;;;;;;;;;5047592;28;20189;-80
2024/02/09 10:04:48;;;;;;;16.20;13.40;;;;;;;;;;5047719;28;20217;-79
2024/02/09 10:07:15;;;;;;;17.57;13.33;;;;;;;;;;5030974;28;20198;-81
2024/02/09 10:09:43;;;;;;;15.93;12.90;;;;;;;;;;5050065;28;20199;-80
2024/02/09 10:12:10;;;;;;;14.67;13.13;;;;;;;;;;5049327;28;20201;-80
2024/02/09 10:14:39;;;;;;;15.23;12.80;;;;;;;;;;5050059;28;20233;-81
2024/02/09 10:17:06;;;;;;;16.53;12.57;;;;;;;;;;5034702;28;20247;-81
2024/02/09 10:19:34;;;;;;;16.03;13.27;;;;;;;;;;5047748;28;20191;-80
2024/02/09 10:22:06;;;;;;;14.30;12.80;;;;;;;;;;5050075;28;20202;-81
2024/02/09 10:24:47;;;;;;;14.83;12.87;;;;;;;;;;5039175;28;20201;-80
2024/02/09 10:27:19;;;;;;;14.00;12.57;;;;;;;;;;5057180;28;20665;-80
2024/02/09 10:29:47;;;;;;;13.67;12.27;;;;;;;;;;5053097;28;20202;-80
2024/02/09 10:32:14;;;;;;;13.20;11.80;;;;;;;;;;5051575;28;20207;-81
2024/02/09 10:34:44;;;;;;;13.80;11.80;;;;;;;;;;5036052;28;20222;-82
2024/02/09 10:37:15;;;;;;;13.80;12.23;;;;;;;;;;5053358;28;20206;-81
2024/02/09 10:39:54;;;;;;;12.77;11.27;;;;;;;;;;5049946;28;20199;-79
2024/02/09 10:42:30;;;;;;;12.53;11.23;;;;;;;;;;5037173;28;20214;-81
2024/02/09 10:44:59;;;;;;;13.63;11.83;;;;;;;;;;5045724;28;20233;-80
2024/02/09 10:47:40;;;;;;;14.33;11.87;;;;;;;;;;5058800;28;20197;-79
2024/02/09 10:50:07;;;;;;;12.83;11.20;;;;;;;;;;5053072;28;20202;-79
2024/02/09 10:52:37;;;;;;;12.03;10.73;;;;;;;;;;5053948;28;20205;-81
2024/02/09 10:55:08;;;;;;;13.40;10.77;;;;;;;;;;5056153;28;20224;-79
2024/02/09 10:57:42;;;;;;;12.50;11.20;;;;;;;;;;5032924;28;20211;-83
2024/02/09 11:00:11;;;;;;;13.03;10.53;;;;;;;;;;5036514;28;20186;-80
2024/02/09 11:02:38;;;;;;;13.07;10.93;;;;;;;;;;5052361;28;20268;-81
2024/02/09 11:05:14;;;;;;;12.33;11.00;;;;;;;;;;5063887;28;20324;-79
2024/02/09 11:07:45;;;;;;;14.60;11.00;;;;;;;;;;5047269;28;20198;-81
2024/02/09 11:10:14;;;;;;;11.63;10.43;;;;;;;;;;5031030;28;20631;-80
2024/02/09 11:12:42;;;;;;;12.43;11.07;;;;;;;;;;5056746;28;20698;-80
2024/02/09 11:15:20;;;;;;;11.70;10.47;;;;;;;;;;5057234;28;20313;-80
2024/02/09 11:17:48;;;;;;;12.40;10.70;;;;;;;;;;5057054;28;20218;-81
2024/02/09 11:20:16;;;;;;;14.33;11.90;;;;;;;;;;5050989;28;20264;-81
2024/02/09 11:22:43;;;;;;;18.77;16.87;;;;;;;;;;5039369;28;20197;-81
2024/02/09 11:25:13;;;;;;;12.43;11.20;;;;;;;;;;5051810;28;20189;-79
2024/02/09 11:27:48;;;;;;;18.07;15.33;;;;;;;;;;5050800;28;20198;-80
2024/02/09 11:30:17;;;;;;;12.97;11.63;;;;;;;;;;5049721;28;20207;-80
2024/02/09 11:32:45;;;;;;;13.73;12.33;;;;;;;;;;5051122;28;20669;-80
2024/02/09 11:35:13;;;;;;;11.57;10.37;;;;;;;;;;5051159;28;20302;-81
2024/02/09 11:37:47;;;;;;;12.20;10.93;;;;;;;;;;5050850;28;20198;-80
2024/02/09 11:40:16;;;;;;;13.17;10.60;;;;;;;;;;5044472;28;20216;-80
2024/02/09 11:42:43;;;;;;;13.40;10.27;;;;;;;;;;5053553;28;20297;-80
2024/02/09 11:45:14;;;;;;;14.47;10.73;;;;;;;;;;5051393;28;20209;-81
2024/02/09 11:47:46;;;;;;;12.07;10.60;;;;;;;;;;5046430;28;20205;-79
2024/02/09 11:50:22;;;;;;;12.90;10.83;;;;;;;;;;5051908;28;20256;-79
2024/02/09 11:52:51;;;;;;;11.87;10.47;;;;;;;;;;5051819;28;20208;-80
2024/02/09 11:55:42;;;;;;;12.90;10.33;;;;;;;;;;5038541;28;20341;-80
2024/02/09 11:58:13;;;;;;;12.20;10.90;;;;;;;;;;5051477;28;20280;-82
2024/02/09 12:00:50;;;;;;;12.67;10.30;;;;;;;;;;5033258;28;20227;-80
2024/02/09 12:03:20;;;;;;;13.53;10.67;;;;;;;;;;5050978;28;20223;-80
2024/02/09 12:05:50;;;;;;;12.30;10.27;;;;;;;;;;5049500;28;20199;-81
2024/02/09 12:08:18;;;;;;;12.80;9.90;;;;;;;;;;5033333;28;20200;-81
2024/02/09 12:10:46;;;;;;;12.77;10.17;;;;;;;;;;5047459;28;20202;-81
2024/02/09 12:13:13;;;;;;;12.03;9.83;;;;;;;;;;5050890;28;20219;-80
2024/02/09 12:15:42;;;;;;;12.27;9.87;;;;;;;;;;5051133;28;20218;-80
2024/02/09 12:18:11;;;;;;;11.70;10.33;;;;;;;;;;5051385;28;20699;-79
2024/02/09 12:20:40;;;;;;;13.27;9.90;;;;;;;;;;5047851;28;20195;-78
2024/02/09 12:23:06;;;;;;;11.63;10.10;;;;;;;;;;5049185;28;20253;-80
2024/02/09 12:28:23;;;;;;;11.60;9.17;;;;;;;;;;5035400;28;20206;-80
2024/02/09 12:30:53;;;;;;;10.77;9.57;;;;;;;;;;5050171;28;20199;-79
2024/02/09 12:33:25;;;;;;;11.43;10.30;;;;;;;;;;5045287;28;20203;-83
2024/02/09 12:35:54;;;;;;;11.17;9.57;;;;;;;;;;5030596;28;20222;-81
2024/02/09 12:38:22;;;;;;;10.07;9.07;;;;;;;;;;5051502;28;20191;-80
2024/02/09 12:40:56;;;;;;;11.57;9.90;;;;;;;;;;5050489;28;20199;-79
2024/02/09 12:43:31;;;;;;;11.37;10.10;;;;;;;;;;5051561;28;20284;-81
2024/02/09 12:46:00;;;;;;;13.70;9.53;;;;;;;;;;5050032;28;20194;-80
2024/02/09 12:48:28;;;;;;;10.97;9.83;;;;;;;;;;5049753;28;20196;-80
2024/02/09 12:50:56;;;;;;;10.97;9.50;;;;;;;;;;5057029;28;20195;-80
2024/02/09 12:53:24;;;;;;;11.07;9.00;;;;;;;;;;5035861;28;20194;-79
2024/02/09 12:55:55;;;;;;;12.20;9.30;;;;;;;;;;5049714;28;20227;-80
2024/02/09 12:58:23;;;;;;;10.20;9.07;;;;;;;;;;5053760;28;20227;-80
2024/02/09 13:00:55;;;;;;;10.07;9.07;;;;;;;;;;5050070;28;20452;-79
2024/02/09 13:03:28;;;;;;;10.70;9.60;;;;;;;;;;5048586;28;20243;-80
2024/02/09 13:05:55;;;;;;;10.87;9.77;;;;;;;;;;5049004;28;20195;-80
2024/02/09 13:08:29;;;;;;;10.77;9.60;;;;;;;;;;5048682;28;20250;-80
2024/02/09 13:10:55;;;;;;;10.83;9.73;;;;;;;;;;5049137;28;20225;-83
2024/02/09 13:13:25;;;;;;;12.23;10.20;;;;;;;;;;5048961;28;20248;-78
2024/02/09 13:15:51;;;;;;;11.53;9.50;;;;;;;;;;5049373;28;20281;-79
2024/02/09 13:18:20;;;;;;;11.87;9.37;;;;;;;;;;5029115;28;20215;-80
2024/02/09 13:20:48;;;;;;;11.10;9.10;;;;;;;;;;5053562;28;20258;-79
2024/02/09 13:23:23;;;;;;;9.67;8.77;;;;;;;;;;5032026;28;20282;-79
2024/02/09 13:25:59;;;;;;;10.07;9.07;;;;;;;;;;5033093;28;20714;-81
2024/02/09 13:28:36;;;;;;;11.00;9.07;;;;;;;;;;5043988;28;20199;-81
2024/02/09 13:31:04;;;;;;;10.07;8.57;;;;;;;;;;5034263;28;20227;-81
2024/02/09 13:33:31;;;;;;;10.10;8.67;;;;;;;;;;5048080;28;20597;-80
2024/02/09 13:36:05;;;;;;;9.87;8.20;;;;;;;;;;5044699;28;20224;-80
2024/02/09 13:38:42;;;;;;;10.40;8.07;;;;;;;;;;5048247;28;20191;-80
2024/02/09 13:41:11;;;;;;;11.10;7.73;;;;;;;;;;5028341;28;20206;-79
2024/02/09 13:43:42;;;;;;;12.53;8.40;;;;;;;;;;5046411;28;20203;-80
2024/02/09 13:46:09;;;;;;;10.60;7.97;;;;;;;;;;5048562;28;20192;-79
2024/02/09 13:48:40;;;;;;;12.27;8.67;;;;;;;;;;5046620;28;20198;-80
2024/02/09 13:51:16;;;;;;;11.20;7.83;;;;;;;;;;5048972;28;20195;-80
2024/02/09 13:53:47;;;;;;;10.37;8.50;;;;;;;;;;5031550;28;20213;-81
2024/02/09 13:56:20;;;;;;;12.47;8.60;;;;;;;;;;5049361;28;20222;-81
2024/02/09 13:58:47;;;;;;;9.30;8.30;;;;;;;;;;5050753;28;20236;-79
2024/02/09 14:01:15;;;;;;;10.53;8.47;;;;;;;;;;5052088;28;20206;-80
2024/02/09 14:03:41;;;;;;;10.07;8.43;;;;;;;;;;5052965;28;20307;-79
2024/02/09 14:06:17;;;;;;;11.17;9.00;;;;;;;;;;5038452;28;20315;-79
2024/02/09 14:08:45;;;;;;;9.40;8.20;;;;;;;;;;5052607;28;20314;-81
2024/02/09 14:11:13;;;;;;;11.17;8.57;;;;;;;;;;5053211;28;20196;-79
2024/02/09 14:13:42;;;;;;;9.37;8.47;;;;;;;;;;5032986;28;20246;-80
2024/02/09 14:16:10;;;;;;;9.40;8.40;;;;;;;;;;5052597;28;20710;-80
2024/02/09 14:18:37;;;;;;;9.30;8.30;;;;;;;;;;5052965;28;20274;-79
2024/02/09 14:21:09;;;;;;;9.40;7.93;;;;;;;;;;5051338;28;20211;-83
2024/02/09 14:23:37;;;;;;;9.13;7.90;;;;;;;;;;5051168;28;20452;-79
2024/02/09 14:26:07;;;;;;;12.97;8.70;;;;;;;;;;5053000;28;20203;-79
2024/02/09 14:28:39;;;;;;;10.23;8.53;;;;;;;;;;5052666;28;20222;-79
2024/02/09 14:31:11;;;;;;;11.27;8.87;;;;;;;;;;5036868;28;20226;-79
2024/02/09 14:33:40;;;;;;;9.83;8.83;;;;;;;;;;5054233;28;20201;-81
2024/02/09 14:36:15;;;;;;;9.00;8.10;;;;;;;;;;5045487;28;20242;-80
2024/02/09 14:38:43;;;;;;;9.87;8.37;;;;;;;;;;5035573;28;20203;-80
2024/02/09 14:41:10;;;;;;;10.50;8.33;;;;;;;;;;5053504;28;20274;-80
2024/02/09 14:43:39;;;;;;;10.83;9.10;;;;;;;;;;5036957;28;20195;-80
2024/02/09 14:46:08;;;;;;;11.03;9.70;;;;;;;;;;5053173;28;20187;-79
2024/02/09 14:48:38;;;;;;;11.63;10.07;;;;;;;;;;5041344;28;20209;-80
2024/02/09 14:51:08;;;;;;;11.37;10.13;;;;;;;;;;5034465;28;20229;-82
2024/02/09 14:53:35;;;;;;;10.60;9.60;;;;;;;;;;5052116;28;20199;-81
2024/02/09 14:56:05;;;;;;;12.10;9.43;;;;;;;;;;5052356;28;20209;-81
2024/02/09 14:58:32;;;;;;;11.27;10.07;;;;;;;;;;5023361;28;20297;-80
2024/02/09 15:00:59;;;;;;;12.60;10.67;;;;;;;;;;5052368;28;20207;-80
2024/02/09 15:03:25;;;;;;;13.47;10.37;;;;;;;;;;5054868;28;20236;-79
2024/02/09 15:05:54;;;;;;;12.27;10.40;;;;;;;;;;5046386;28;20190;-79
2024/02/09 15:08:24;;;;;;;13.20;10.30;;;;;;;;;;5052196;28;20228;-82
2024/02/09 15:10:53;;;;;;;13.47;10.07;;;;;;;;;;5051495;28;20264;-80
2024/02/09 15:13:26;;;;;;;12.03;10.60;;;;;;;;;;5030216;28;20202;-80
2024/02/09 15:15:54;;;;;;;13.93;10.10;;;;;;;;;;5051254;28;20759;-80
2024/02/09 15:18:21;;;;;;;12.43;10.53;;;;;;;;;;5052222;28;20189;-80
2024/02/09 15:20:56;;;;;;;11.73;10.50;;;;;;;;;;5054873;28;20232;-80
2024/02/09 15:23:24;;;;;;;12.97;10.87;;;;;;;;;;5048068;28;20195;-81
2024/02/09 15:25:58;;;;;;;13.37;10.53;;;;;;;;;;5033556;28;20197;-80
2024/02/09 15:28:26;;;;;;;14.10;10.13;;;;;;;;;;5032259;28;20275;-81
2024/02/09 15:30:53;;;;;;;13.17;11.20;;;;;;;;;;5034614;28;20224;-80
2024/02/09 15:33:25;;;;;;;12.00;10.50;;;;;;;;;;5044448;28;20198;-81
2024/02/09 15:35:55;;;;;;;15.37;10.70;;;;;;;;;;5043626;28;20229;-79
2024/02/09 15:38:24;;;;;;;14.17;10.13;;;;;;;;;;5062220;28;20205;-82
2024/02/09 15:40:52;;;;;;;13.10;10.53;;;;;;;;;;5051385;28;21038;-79
2024/02/09 15:43:19;;;;;;;11.93;10.40;;;;;;;;;;5049730;28;20297;-80
2024/02/09 15:45:46;;;;;;;11.17;10.03;;;;;;;;;;5043906;28;20210;-80
2024/02/09 15:48:14;;;;;;;11.20;10.03;;;;;;;;;;5051510;28;20309;-78
2024/02/09 15:50:41;;;;;;;11.53;10.13;;;;;;;;;;5039493;28;20214;-84
2024/02/09 15:53:10;;;;;;;14.43;10.20;;;;;;;;;;5055976;28;20200;-81
2024/02/09 15:55:38;;;;;;;12.80;11.47;;;;;;;;;;5049904;28;20220;-80
2024/02/09 15:58:07;;;;;;;13.57;11.83;;;;;;;;;;5049708;28;20234;-80
2024/02/09 16:00:39;;;;;;;12.37;10.93;;;;;;;;;;5050837;28;20295;-79
2024/02/09 16:03:11;;;;;;;12.43;10.73;;;;;;;;;;5045246;28;20225;-80
2024/02/09 16:05:39;;;;;;;11.90;10.67;;;;;;;;;;5047545;28;20225;-81
2024/02/09 16:08:05;;;;;;;11.40;9.77;;;;;;;;;;5049929;28;20280;-80
2024/02/09 16:10:36;;;;;;;11.23;9.37;;;;;;;;;;5048723;28;20193;-81
2024/02/09 16:13:08;;;;;;;13.20;9.53;;;;;;;;;;5048403;28;20449;-82
2024/02/09 16:15:40;;;;;;;10.87;9.60;;;;;;;;;;5048871;28;20201;-79
2024/02/09 16:18:07;;;;;;;12.37;9.57;;;;;;;;;;5047141;28;20213;-81
2024/02/09 16:20:38;;;;;;;12.00;9.77;;;;;;;;;;5048053;28;20208;-79
2024/02/09 16:23:05;;;;;;;12.13;9.90;;;;;;;;;;5049319;28;20240;-81
2024/02/09 16:25:32;;;;;;;11.07;9.90;;;;;;;;;;5035989;28;20193;-82
2024/02/09 16:28:02;;;;;;;13.40;10.00;;;;;;;;;;5050543;28;20217;-80
2024/02/09 16:30:32;;;;;;;10.47;9.30;;;;;;;;;;5050105;28;20589;-79